sensor_id;sensor_type;location;lat;lon;timestamp;P1;durP1;ratioP1;P2;durP2;ratioP2
61640;SDS011;62201;49.966;8.342;2024-03-02T00:00:18;14.67;;;8.43;;
61640;SDS011;62201;49.966;8.342;2024-03-02T00:02:46;12.20;;;8.43;;
61640;SDS011;62201;49.966;8.342;2024-03-02T00:05:13;15.23;;;9.10;;
61640;SDS011;62201;49.966;8.342;2024-03-02T00:07:44;12.03;;;8.80;;
61640;SDS011;62201;49.966;8.342;2024-03-02T00:10:11;15.47;;;8.53;;
61640;SDS011;62201;49.966;8.342;2024-03-02T00:12:39;11.03;;;8.03;;
61640;SDS011;62201;49.966;8.342;2024-03-02T00:15:06;12.97;;;7.87;;
61640;SDS011;62201;49.966;8.342;2024-03-02T00:17:55;12.03;;;7.43;;
61640;SDS011;62201;49.966;8.342;2024-03-02T00:20:21;11.77;;;8.17;;
61640;SDS011;62201;49.966;8.342;2024-03-02T00:22:47;11.60;;;7.77;;
61640;SDS011;62201;49.966;8.342;2024-03-02T00:25:13;11.17;;;7.50;;
61640;SDS011;62201;49.966;8.342;2024-03-02T00:27:38;12.93;;;7.73;;
61640;SDS011;62201;49.966;8.342;2024-03-02T00:33:15;14.37;;;9.47;;
61640;SDS011;62201;49.966;8.342;2024-03-02T00:35:43;15.23;;;9.37;;
61640;SDS011;62201;49.966;8.342;2024-03-02T00:38:09;14.20;;;8.43;;
61640;SDS011;62201;49.966;8.342;2024-03-02T00:40:35;13.77;;;8.73;;
61640;SDS011;62201;49.966;8.342;2024-03-02T00:43:01;16.03;;;8.17;;
61640;SDS011;62201;49.966;8.342;2024-03-02T00:45:28;18.70;;;10.07;;
61640;SDS011;62201;49.966;8.342;2024-03-02T00:47:53;14.13;;;8.70;;
61640;SDS011;62201;49.966;8.342;2024-03-02T00:50:19;12.63;;;8.90;;
61640;SDS011;62201;49.966;8.342;2024-03-02T00:52:45;15.50;;;9.23;;
61640;SDS011;62201;49.966;8.342;2024-03-02T00:55:13;16.97;;;10.17;;
61640;SDS011;62201;49.966;8.342;2024-03-02T00:57:39;17.33;;;10.27;;
61640;SDS011;62201;49.966;8.342;2024-03-02T01:00:04;13.00;;;9.40;;
61640;SDS011;62201;49.966;8.342;2024-03-02T01:02:34;12.80;;;8.70;;
61640;SDS011;62201;49.966;8.342;2024-03-02T01:05:00;13.47;;;8.97;;
61640;SDS011;62201;49.966;8.342;2024-03-02T01:07:25;14.47;;;8.83;;
61640;SDS011;62201;49.966;8.342;2024-03-02T01:09:51;16.57;;;9.20;;
61640;SDS011;62201;49.966;8.342;2024-03-02T01:12:16;11.30;;;8.37;;
61640;SDS011;62201;49.966;8.342;2024-03-02T01:14:42;15.10;;;8.97;;
61640;SDS011;62201;49.966;8.342;2024-03-02T01:17:07;15.83;;;9.33;;
61640;SDS011;62201;49.966;8.342;2024-03-02T01:19:32;14.60;;;9.80;;
61640;SDS011;62201;49.966;8.342;2024-03-02T01:21:58;15.57;;;9.90;;
61640;SDS011;62201;49.966;8.342;2024-03-02T01:24:23;14.30;;;9.43;;
61640;SDS011;62201;49.966;8.342;2024-03-02T01:26:49;15.17;;;9.33;;
61640;SDS011;62201;49.966;8.342;2024-03-02T01:29:14;13.60;;;9.13;;
61640;SDS011;62201;49.966;8.342;2024-03-02T01:31:39;15.97;;;9.43;;
61640;SDS011;62201;49.966;8.342;2024-03-02T01:34:07;14.63;;;10.10;;
61640;SDS011;62201;49.966;8.342;2024-03-02T01:36:32;16.73;;;10.83;;
61640;SDS011;62201;49.966;8.342;2024-03-02T01:38:58;16.47;;;10.07;;
61640;SDS011;62201;49.966;8.342;2024-03-02T01:41:23;12.87;;;9.97;;
61640;SDS011;62201;49.966;8.342;2024-03-02T01:43:48;13.80;;;9.97;;
61640;SDS011;62201;49.966;8.342;2024-03-02T01:46:14;15.67;;;11.10;;
61640;SDS011;62201;49.966;8.342;2024-03-02T01:48:39;15.53;;;9.90;;
61640;SDS011;62201;49.966;8.342;2024-03-02T01:51:05;15.83;;;10.30;;
61640;SDS011;62201;49.966;8.342;2024-03-02T01:53:31;18.13;;;10.83;;
61640;SDS011;62201;49.966;8.342;2024-03-02T01:55:57;18.43;;;12.37;;
61640;SDS011;62201;49.966;8.342;2024-03-02T01:58:22;18.43;;;12.13;;
61640;SDS011;62201;49.966;8.342;2024-03-02T02:00:48;19.77;;;13.27;;
61640;SDS011;62201;49.966;8.342;2024-03-02T02:03:13;23.57;;;14.80;;
61640;SDS011;62201;49.966;8.342;2024-03-02T02:05:39;18.57;;;13.67;;
61640;SDS011;62201;49.966;8.342;2024-03-02T02:08:07;18.23;;;12.40;;
61640;SDS011;62201;49.966;8.342;2024-03-02T02:10:32;25.27;;;15.13;;
61640;SDS011;62201;49.966;8.342;2024-03-02T02:12:58;21.67;;;14.10;;
61640;SDS011;62201;49.966;8.342;2024-03-02T02:15:29;22.77;;;15.33;;
61640;SDS011;62201;49.966;8.342;2024-03-02T02:17:56;27.25;;;17.00;;
61640;SDS011;62201;49.966;8.342;2024-03-02T02:20:22;27.13;;;17.30;;
61640;SDS011;62201;49.966;8.342;2024-03-02T02:23:01;26.63;;;15.77;;
61640;SDS011;62201;49.966;8.342;2024-03-02T02:25:27;20.87;;;14.97;;
61640;SDS011;62201;49.966;8.342;2024-03-02T02:27:53;30.53;;;18.27;;
61640;SDS011;62201;49.966;8.342;2024-03-02T02:30:20;24.73;;;15.37;;
61640;SDS011;62201;49.966;8.342;2024-03-02T02:32:47;28.40;;;17.63;;
61640;SDS011;62201;49.966;8.342;2024-03-02T02:35:12;27.90;;;16.97;;
61640;SDS011;62201;49.966;8.342;2024-03-02T02:37:38;20.07;;;13.70;;
61640;SDS011;62201;49.966;8.342;2024-03-02T02:40:04;18.17;;;13.73;;
61640;SDS011;62201;49.966;8.342;2024-03-02T02:42:30;18.87;;;12.77;;
61640;SDS011;62201;49.966;8.342;2024-03-02T02:44:55;18.53;;;12.37;;
61640;SDS011;62201;49.966;8.342;2024-03-02T02:47:20;25.57;;;15.03;;
61640;SDS011;62201;49.966;8.342;2024-03-02T02:49:46;23.73;;;15.23;;
61640;SDS011;62201;49.966;8.342;2024-03-02T02:52:11;20.27;;;13.37;;
61640;SDS011;62201;49.966;8.342;2024-03-02T02:54:37;17.07;;;12.10;;
61640;SDS011;62201;49.966;8.342;2024-03-02T02:57:03;23.40;;;14.70;;
61640;SDS011;62201;49.966;8.342;2024-03-02T02:59:28;23.17;;;14.37;;
61640;SDS011;62201;49.966;8.342;2024-03-02T03:01:53;21.87;;;14.87;;
61640;SDS011;62201;49.966;8.342;2024-03-02T03:04:19;20.47;;;12.00;;
61640;SDS011;62201;49.966;8.342;2024-03-02T03:06:44;21.30;;;13.67;;
61640;SDS011;62201;49.966;8.342;2024-03-02T03:09:11;14.77;;;11.03;;
61640;SDS011;62201;49.966;8.342;2024-03-02T03:11:36;16.73;;;10.73;;
61640;SDS011;62201;49.966;8.342;2024-03-02T03:14:02;16.37;;;11.77;;
61640;SDS011;62201;49.966;8.342;2024-03-02T03:16:28;17.37;;;12.93;;
61640;SDS011;62201;49.966;8.342;2024-03-02T03:18:53;19.93;;;12.70;;
61640;SDS011;62201;49.966;8.342;2024-03-02T03:21:18;18.00;;;11.83;;
61640;SDS011;62201;49.966;8.342;2024-03-02T03:23:44;16.27;;;10.70;;
61640;SDS011;62201;49.966;8.342;2024-03-02T03:26:10;21.73;;;13.17;;
61640;SDS011;62201;49.966;8.342;2024-03-02T03:28:35;19.00;;;13.13;;
61640;SDS011;62201;49.966;8.342;2024-03-02T03:31:01;28.90;;;17.07;;
61640;SDS011;62201;49.966;8.342;2024-03-02T03:33:27;24.57;;;15.53;;
61640;SDS011;62201;49.966;8.342;2024-03-02T03:35:52;20.60;;;14.17;;
61640;SDS011;62201;49.966;8.342;2024-03-02T03:38:18;19.57;;;13.47;;
61640;SDS011;62201;49.966;8.342;2024-03-02T03:40:44;23.80;;;14.37;;
61640;SDS011;62201;49.966;8.342;2024-03-02T03:43:10;14.10;;;10.03;;
61640;SDS011;62201;49.966;8.342;2024-03-02T03:45:35;19.73;;;13.30;;
61640;SDS011;62201;49.966;8.342;2024-03-02T03:48:01;19.37;;;13.00;;
61640;SDS011;62201;49.966;8.342;2024-03-02T03:50:27;22.20;;;12.93;;
61640;SDS011;62201;49.966;8.342;2024-03-02T03:52:53;22.13;;;13.80;;
61640;SDS011;62201;49.966;8.342;2024-03-02T03:55:18;17.60;;;12.70;;
61640;SDS011;62201;49.966;8.342;2024-03-02T03:57:44;20.30;;;13.77;;
61640;SDS011;62201;49.966;8.342;2024-03-02T04:00:09;29.37;;;16.50;;
61640;SDS011;62201;49.966;8.342;2024-03-02T04:02:35;19.53;;;13.67;;
61640;SDS011;62201;49.966;8.342;2024-03-02T04:05:01;27.27;;;16.03;;
61640;SDS011;62201;49.966;8.342;2024-03-02T04:07:29;18.93;;;13.40;;
61640;SDS011;62201;49.966;8.342;2024-03-02T04:09:55;17.33;;;11.73;;
61640;SDS011;62201;49.966;8.342;2024-03-02T04:12:20;24.80;;;14.83;;
61640;SDS011;62201;49.966;8.342;2024-03-02T04:14:46;21.07;;;14.40;;
61640;SDS011;62201;49.966;8.342;2024-03-02T04:17:11;22.53;;;14.80;;
61640;SDS011;62201;49.966;8.342;2024-03-02T04:19:36;21.27;;;13.63;;
61640;SDS011;62201;49.966;8.342;2024-03-02T04:22:02;19.47;;;12.40;;
61640;SDS011;62201;49.966;8.342;2024-03-02T04:24:28;19.33;;;12.97;;
61640;SDS011;62201;49.966;8.342;2024-03-02T04:26:53;17.83;;;12.07;;
61640;SDS011;62201;49.966;8.342;2024-03-02T04:29:18;19.83;;;12.40;;
61640;SDS011;62201;49.966;8.342;2024-03-02T04:31:44;22.20;;;14.80;;
61640;SDS011;62201;49.966;8.342;2024-03-02T04:34:09;24.73;;;14.53;;
61640;SDS011;62201;49.966;8.342;2024-03-02T04:36:35;23.43;;;14.57;;
61640;SDS011;62201;49.966;8.342;2024-03-02T04:39:00;26.07;;;15.83;;
61640;SDS011;62201;49.966;8.342;2024-03-02T04:41:26;20.47;;;13.23;;
61640;SDS011;62201;49.966;8.342;2024-03-02T04:43:51;18.80;;;12.37;;
61640;SDS011;62201;49.966;8.342;2024-03-02T04:46:17;22.47;;;14.93;;
61640;SDS011;62201;49.966;8.342;2024-03-02T04:48:42;21.60;;;15.00;;
61640;SDS011;62201;49.966;8.342;2024-03-02T04:51:07;21.60;;;14.70;;
61640;SDS011;62201;49.966;8.342;2024-03-02T04:53:33;28.27;;;16.43;;
61640;SDS011;62201;49.966;8.342;2024-03-02T04:55:58;37.87;;;21.20;;
61640;SDS011;62201;49.966;8.342;2024-03-02T04:58:43;21.77;;;13.73;;
61640;SDS011;62201;49.966;8.342;2024-03-02T05:01:09;18.80;;;12.33;;
61640;SDS011;62201;49.966;8.342;2024-03-02T05:03:34;28.20;;;17.87;;
61640;SDS011;62201;49.966;8.342;2024-03-02T05:05:59;25.70;;;17.37;;
61640;SDS011;62201;49.966;8.342;2024-03-02T05:08:25;23.23;;;15.27;;
61640;SDS011;62201;49.966;8.342;2024-03-02T05:10:50;17.83;;;13.73;;
61640;SDS011;62201;49.966;8.342;2024-03-02T05:13:16;20.87;;;15.37;;
61640;SDS011;62201;49.966;8.342;2024-03-02T05:15:43;25.23;;;16.43;;
61640;SDS011;62201;49.966;8.342;2024-03-02T05:18:09;27.63;;;17.53;;
61640;SDS011;62201;49.966;8.342;2024-03-02T05:20:34;21.43;;;15.27;;
61640;SDS011;62201;49.966;8.342;2024-03-02T05:22:59;23.67;;;14.83;;
61640;SDS011;62201;49.966;8.342;2024-03-02T05:25:25;17.63;;;12.40;;
61640;SDS011;62201;49.966;8.342;2024-03-02T05:27:50;21.93;;;14.30;;
61640;SDS011;62201;49.966;8.342;2024-03-02T05:30:16;21.77;;;14.47;;
61640;SDS011;62201;49.966;8.342;2024-03-02T05:32:41;17.13;;;10.97;;
61640;SDS011;62201;49.966;8.342;2024-03-02T05:35:06;16.57;;;11.10;;
61640;SDS011;62201;49.966;8.342;2024-03-02T05:37:33;21.03;;;13.70;;
61640;SDS011;62201;49.966;8.342;2024-03-02T05:39:58;19.30;;;12.33;;
61640;SDS011;62201;49.966;8.342;2024-03-02T05:42:24;21.07;;;12.63;;
61640;SDS011;62201;49.966;8.342;2024-03-02T05:44:49;18.30;;;12.40;;
61640;SDS011;62201;49.966;8.342;2024-03-02T05:47:15;17.20;;;11.37;;
61640;SDS011;62201;49.966;8.342;2024-03-02T05:49:40;17.57;;;11.50;;
61640;SDS011;62201;49.966;8.342;2024-03-02T05:52:06;20.67;;;12.60;;
61640;SDS011;62201;49.966;8.342;2024-03-02T05:54:31;21.23;;;12.77;;
61640;SDS011;62201;49.966;8.342;2024-03-02T05:56:57;18.47;;;12.20;;
61640;SDS011;62201;49.966;8.342;2024-03-02T05:59:40;15.33;;;11.60;;
61640;SDS011;62201;49.966;8.342;2024-03-02T06:02:06;19.47;;;12.13;;
61640;SDS011;62201;49.966;8.342;2024-03-02T06:04:31;17.30;;;11.60;;
61640;SDS011;62201;49.966;8.342;2024-03-02T06:06:56;17.60;;;11.97;;
61640;SDS011;62201;49.966;8.342;2024-03-02T06:09:22;16.53;;;11.67;;
61640;SDS011;62201;49.966;8.342;2024-03-02T06:11:49;18.97;;;11.17;;
61640;SDS011;62201;49.966;8.342;2024-03-02T06:14:15;18.10;;;11.33;;
61640;SDS011;62201;49.966;8.342;2024-03-02T06:16:40;17.83;;;11.90;;
61640;SDS011;62201;49.966;8.342;2024-03-02T06:19:05;20.10;;;12.50;;
61640;SDS011;62201;49.966;8.342;2024-03-02T06:21:32;18.37;;;12.33;;
61640;SDS011;62201;49.966;8.342;2024-03-02T06:23:57;21.23;;;12.27;;
61640;SDS011;62201;49.966;8.342;2024-03-02T06:26:22;20.23;;;12.50;;
61640;SDS011;62201;49.966;8.342;2024-03-02T06:28:48;19.77;;;12.63;;
61640;SDS011;62201;49.966;8.342;2024-03-02T06:31:13;17.77;;;12.30;;
61640;SDS011;62201;49.966;8.342;2024-03-02T06:33:39;18.53;;;13.07;;
61640;SDS011;62201;49.966;8.342;2024-03-02T06:36:05;24.60;;;14.47;;
61640;SDS011;62201;49.966;8.342;2024-03-02T06:38:33;20.80;;;13.77;;
61640;SDS011;62201;49.966;8.342;2024-03-02T06:40:59;22.20;;;15.13;;
61640;SDS011;62201;49.966;8.342;2024-03-02T06:43:24;22.70;;;15.10;;
61640;SDS011;62201;49.966;8.342;2024-03-02T06:45:50;28.50;;;16.77;;
61640;SDS011;62201;49.966;8.342;2024-03-02T06:48:19;23.60;;;15.40;;
61640;SDS011;62201;49.966;8.342;2024-03-02T06:50:48;24.23;;;18.00;;
61640;SDS011;62201;49.966;8.342;2024-03-02T06:53:14;21.60;;;15.90;;
61640;SDS011;62201;49.966;8.342;2024-03-02T06:55:42;21.40;;;15.43;;
61640;SDS011;62201;49.966;8.342;2024-03-02T06:58:09;22.73;;;13.73;;
61640;SDS011;62201;49.966;8.342;2024-03-02T07:00:34;20.93;;;14.77;;
61640;SDS011;62201;49.966;8.342;2024-03-02T07:03:00;18.07;;;12.97;;
61640;SDS011;62201;49.966;8.342;2024-03-02T07:05:25;21.53;;;13.60;;
61640;SDS011;62201;49.966;8.342;2024-03-02T07:07:50;19.13;;;13.33;;
61640;SDS011;62201;49.966;8.342;2024-03-02T07:10:16;16.20;;;12.30;;
61640;SDS011;62201;49.966;8.342;2024-03-02T07:12:41;21.93;;;14.43;;
61640;SDS011;62201;49.966;8.342;2024-03-02T07:15:07;17.57;;;13.03;;
61640;SDS011;62201;49.966;8.342;2024-03-02T07:17:32;20.20;;;13.13;;
61640;SDS011;62201;49.966;8.342;2024-03-02T07:19:58;16.70;;;11.47;;
61640;SDS011;62201;49.966;8.342;2024-03-02T07:22:23;19.23;;;12.20;;
61640;SDS011;62201;49.966;8.342;2024-03-02T07:24:49;15.60;;;11.77;;
61640;SDS011;62201;49.966;8.342;2024-03-02T07:27:15;16.07;;;11.83;;
61640;SDS011;62201;49.966;8.342;2024-03-02T07:29:41;18.17;;;13.23;;
61640;SDS011;62201;49.966;8.342;2024-03-02T07:32:07;16.30;;;10.90;;
61640;SDS011;62201;49.966;8.342;2024-03-02T07:34:33;14.97;;;10.60;;
61640;SDS011;62201;49.966;8.342;2024-03-02T07:36:58;17.00;;;12.37;;
61640;SDS011;62201;49.966;8.342;2024-03-02T07:39:24;19.70;;;14.23;;
61640;SDS011;62201;49.966;8.342;2024-03-02T07:41:50;17.07;;;12.57;;
61640;SDS011;62201;49.966;8.342;2024-03-02T07:44:15;19.27;;;13.97;;
61640;SDS011;62201;49.966;8.342;2024-03-02T07:46:41;18.60;;;12.80;;
61640;SDS011;62201;49.966;8.342;2024-03-02T07:49:08;15.73;;;12.23;;
61640;SDS011;62201;49.966;8.342;2024-03-02T07:51:33;18.63;;;12.70;;
61640;SDS011;62201;49.966;8.342;2024-03-02T07:53:59;20.60;;;12.80;;
61640;SDS011;62201;49.966;8.342;2024-03-02T07:56:24;21.93;;;13.03;;
61640;SDS011;62201;49.966;8.342;2024-03-02T07:58:49;17.43;;;11.87;;
61640;SDS011;62201;49.966;8.342;2024-03-02T08:01:15;16.77;;;11.73;;
61640;SDS011;62201;49.966;8.342;2024-03-02T08:03:42;15.27;;;12.03;;
61640;SDS011;62201;49.966;8.342;2024-03-02T08:06:07;18.53;;;12.57;;
61640;SDS011;62201;49.966;8.342;2024-03-02T08:08:33;16.07;;;11.57;;
61640;SDS011;62201;49.966;8.342;2024-03-02T08:10:58;15.97;;;11.70;;
61640;SDS011;62201;49.966;8.342;2024-03-02T08:13:23;15.17;;;11.63;;
61640;SDS011;62201;49.966;8.342;2024-03-02T08:15:49;15.53;;;11.07;;
61640;SDS011;62201;49.966;8.342;2024-03-02T08:18:14;18.33;;;13.40;;
61640;SDS011;62201;49.966;8.342;2024-03-02T08:20:40;19.00;;;13.73;;
61640;SDS011;62201;49.966;8.342;2024-03-02T08:23:06;17.00;;;12.50;;
61640;SDS011;62201;49.966;8.342;2024-03-02T08:25:31;17.03;;;12.00;;
61640;SDS011;62201;49.966;8.342;2024-03-02T08:27:57;19.93;;;12.83;;
61640;SDS011;62201;49.966;8.342;2024-03-02T08:30:22;17.60;;;12.37;;
61640;SDS011;62201;49.966;8.342;2024-03-02T08:32:48;17.27;;;11.83;;
61640;SDS011;62201;49.966;8.342;2024-03-02T08:35:13;18.13;;;11.23;;
61640;SDS011;62201;49.966;8.342;2024-03-02T08:37:39;15.67;;;11.27;;
61640;SDS011;62201;49.966;8.342;2024-03-02T08:40:07;17.13;;;11.30;;
61640;SDS011;62201;49.966;8.342;2024-03-02T08:42:33;17.50;;;11.07;;
61640;SDS011;62201;49.966;8.342;2024-03-02T08:44:58;14.03;;;10.40;;
61640;SDS011;62201;49.966;8.342;2024-03-02T08:47:25;16.37;;;10.77;;
61640;SDS011;62201;49.966;8.342;2024-03-02T08:49:51;12.83;;;10.47;;
61640;SDS011;62201;49.966;8.342;2024-03-02T08:52:16;15.25;;;10.80;;
61640;SDS011;62201;49.966;8.342;2024-03-02T08:54:42;14.57;;;10.57;;
61640;SDS011;62201;49.966;8.342;2024-03-02T08:57:07;15.93;;;11.13;;
61640;SDS011;62201;49.966;8.342;2024-03-02T08:59:33;17.92;;;11.02;;
61640;SDS011;62201;49.966;8.342;2024-03-02T09:01:58;12.83;;;9.60;;
61640;SDS011;62201;49.966;8.342;2024-03-02T09:04:24;18.70;;;11.65;;
61640;SDS011;62201;49.966;8.342;2024-03-02T09:06:49;12.55;;;9.70;;
61640;SDS011;62201;49.966;8.342;2024-03-02T09:09:15;49.70;;;12.60;;
61640;SDS011;62201;49.966;8.342;2024-03-02T09:11:40;19.10;;;9.95;;
61640;SDS011;62201;49.966;8.342;2024-03-02T09:14:05;13.20;;;10.35;;
61640;SDS011;62201;49.966;8.342;2024-03-02T09:16:31;16.33;;;9.88;;
61640;SDS011;62201;49.966;8.342;2024-03-02T09:18:56;24.13;;;10.32;;
61640;SDS011;62201;49.966;8.342;2024-03-02T09:21:23;128.43;;;18.05;;
61640;SDS011;62201;49.966;8.342;2024-03-02T09:23:48;14.38;;;9.75;;
61640;SDS011;62201;49.966;8.342;2024-03-02T09:26:14;23.80;;;11.35;;
61640;SDS011;62201;49.966;8.342;2024-03-02T09:28:43;15.30;;;9.93;;
61640;SDS011;62201;49.966;8.342;2024-03-02T09:31:08;45.22;;;10.65;;
61640;SDS011;62201;49.966;8.342;2024-03-02T09:33:34;15.90;;;9.82;;
61640;SDS011;62201;49.966;8.342;2024-03-02T09:35:59;33.85;;;11.57;;
61640;SDS011;62201;49.966;8.342;2024-03-02T09:38:25;12.48;;;9.35;;
61640;SDS011;62201;49.966;8.342;2024-03-02T09:40:50;12.60;;;9.65;;
61640;SDS011;62201;49.966;8.342;2024-03-02T09:43:16;56.92;;;11.73;;
61640;SDS011;62201;49.966;8.342;2024-03-02T09:45:41;14.10;;;9.65;;
61640;SDS011;62201;49.966;8.342;2024-03-02T09:48:07;10.80;;;8.38;;
61640;SDS011;62201;49.966;8.342;2024-03-02T09:50:32;20.90;;;9.07;;
61640;SDS011;62201;49.966;8.342;2024-03-02T09:52:58;11.30;;;8.50;;
61640;SDS011;62201;49.966;8.342;2024-03-02T09:55:24;10.95;;;8.63;;
61640;SDS011;62201;49.966;8.342;2024-03-02T09:57:50;11.88;;;8.90;;
61640;SDS011;62201;49.966;8.342;2024-03-02T10:00:16;11.80;;;9.13;;
61640;SDS011;62201;49.966;8.342;2024-03-02T10:02:42;16.08;;;9.30;;
61640;SDS011;62201;49.966;8.342;2024-03-02T10:05:08;11.90;;;8.98;;
61640;SDS011;62201;49.966;8.342;2024-03-02T10:07:34;14.48;;;10.07;;
61640;SDS011;62201;49.966;8.342;2024-03-02T10:10:00;12.68;;;8.80;;
61640;SDS011;62201;49.966;8.342;2024-03-02T10:12:38;13.82;;;9.23;;
61640;SDS011;62201;49.966;8.342;2024-03-02T10:15:03;13.55;;;8.60;;
61640;SDS011;62201;49.966;8.342;2024-03-02T10:17:32;14.65;;;8.73;;
61640;SDS011;62201;49.966;8.342;2024-03-02T10:19:58;11.88;;;8.30;;
61640;SDS011;62201;49.966;8.342;2024-03-02T10:22:23;10.13;;;7.97;;
61640;SDS011;62201;49.966;8.342;2024-03-02T10:24:49;10.43;;;8.18;;
61640;SDS011;62201;49.966;8.342;2024-03-02T10:27:15;11.20;;;8.02;;
61640;SDS011;62201;49.966;8.342;2024-03-02T10:29:47;9.82;;;7.38;;
61640;SDS011;62201;49.966;8.342;2024-03-02T10:32:13;11.38;;;7.55;;
61640;SDS011;62201;49.966;8.342;2024-03-02T10:34:41;9.75;;;7.38;;
61640;SDS011;62201;49.966;8.342;2024-03-02T10:37:11;12.38;;;8.40;;
61640;SDS011;62201;49.966;8.342;2024-03-02T10:39:37;13.02;;;8.43;;
61640;SDS011;62201;49.966;8.342;2024-03-02T10:42:04;10.20;;;8.02;;
61640;SDS011;62201;49.966;8.342;2024-03-02T10:44:31;11.27;;;8.20;;
61640;SDS011;62201;49.966;8.342;2024-03-02T10:47:01;9.15;;;8.05;;
61640;SDS011;62201;49.966;8.342;2024-03-02T10:49:29;12.98;;;7.93;;
61640;SDS011;62201;49.966;8.342;2024-03-02T10:51:56;9.15;;;7.55;;
61640;SDS011;62201;49.966;8.342;2024-03-02T10:54:22;8.98;;;7.63;;
61640;SDS011;62201;49.966;8.342;2024-03-02T10:56:51;12.10;;;8.32;;
61640;SDS011;62201;49.966;8.342;2024-03-02T11:01:57;11.02;;;7.80;;
61640;SDS011;62201;49.966;8.342;2024-03-02T11:04:25;9.55;;;7.05;;
61640;SDS011;62201;49.966;8.342;2024-03-02T11:06:52;9.32;;;6.90;;
61640;SDS011;62201;49.966;8.342;2024-03-02T11:09:25;9.25;;;7.20;;
61640;SDS011;62201;49.966;8.342;2024-03-02T11:12:00;8.40;;;6.90;;
61640;SDS011;62201;49.966;8.342;2024-03-02T11:14:30;12.90;;;8.23;;
61640;SDS011;62201;49.966;8.342;2024-03-02T11:16:57;10.50;;;6.93;;
61640;SDS011;62201;49.966;8.342;2024-03-02T11:19:23;10.60;;;7.80;;
61640;SDS011;62201;49.966;8.342;2024-03-02T11:21:50;10.90;;;7.60;;
61640;SDS011;62201;49.966;8.342;2024-03-02T11:32:00;11.90;;;6.93;;
61640;SDS011;62201;49.966;8.342;2024-03-02T11:34:32;10.25;;;6.63;;
61640;SDS011;62201;49.966;8.342;2024-03-02T11:36:59;9.45;;;6.72;;
61640;SDS011;62201;49.966;8.342;2024-03-02T11:39:26;13.32;;;7.35;;
61640;SDS011;62201;49.966;8.342;2024-03-02T11:41:52;8.23;;;6.50;;
61640;SDS011;62201;49.966;8.342;2024-03-02T11:44:18;9.10;;;6.47;;
61640;SDS011;62201;49.966;8.342;2024-03-02T11:47:00;8.88;;;5.43;;
61640;SDS011;62201;49.966;8.342;2024-03-02T11:49:36;7.40;;;5.90;;
61640;SDS011;62201;49.966;8.342;2024-03-02T11:52:12;10.07;;;6.05;;
61640;SDS011;62201;49.966;8.342;2024-03-02T11:54:40;9.13;;;5.93;;
61640;SDS011;62201;49.966;8.342;2024-03-02T11:57:17;7.60;;;5.60;;
61640;SDS011;62201;49.966;8.342;2024-03-02T11:59:44;7.18;;;5.60;;
61640;SDS011;62201;49.966;8.342;2024-03-02T12:02:17;9.82;;;5.55;;
61640;SDS011;62201;49.966;8.342;2024-03-02T12:04:44;6.53;;;5.32;;
61640;SDS011;62201;49.966;8.342;2024-03-02T12:07:10;6.43;;;5.03;;
61640;SDS011;62201;49.966;8.342;2024-03-02T12:09:36;9.00;;;4.45;;
61640;SDS011;62201;49.966;8.342;2024-03-02T12:12:05;6.82;;;4.63;;
61640;SDS011;62201;49.966;8.342;2024-03-02T12:14:32;7.90;;;4.15;;
61640;SDS011;62201;49.966;8.342;2024-03-02T12:16:59;7.22;;;4.10;;
61640;SDS011;62201;49.966;8.342;2024-03-02T12:19:25;5.65;;;4.15;;
61640;SDS011;62201;49.966;8.342;2024-03-02T12:21:51;4.15;;;3.30;;
61640;SDS011;62201;49.966;8.342;2024-03-02T12:24:18;5.15;;;3.10;;
61640;SDS011;62201;49.966;8.342;2024-03-02T12:26:43;4.10;;;3.10;;
61640;SDS011;62201;49.966;8.342;2024-03-02T12:29:09;5.18;;;2.60;;
61640;SDS011;62201;49.966;8.342;2024-03-02T12:31:35;4.32;;;2.85;;
61640;SDS011;62201;49.966;8.342;2024-03-02T12:34:01;6.13;;;3.00;;
61640;SDS011;62201;49.966;8.342;2024-03-02T12:36:28;4.60;;;2.90;;
61640;SDS011;62201;49.966;8.342;2024-03-02T12:38:53;2.92;;;2.30;;
61640;SDS011;62201;49.966;8.342;2024-03-02T12:41:19;4.38;;;2.75;;
61640;SDS011;62201;49.966;8.342;2024-03-02T12:43:45;4.18;;;2.80;;
61640;SDS011;62201;49.966;8.342;2024-03-02T12:46:10;5.88;;;2.95;;
61640;SDS011;62201;49.966;8.342;2024-03-02T12:48:36;3.75;;;3.00;;
61640;SDS011;62201;49.966;8.342;2024-03-02T12:51:02;4.05;;;2.90;;
61640;SDS011;62201;49.966;8.342;2024-03-02T12:53:28;4.45;;;3.00;;
61640;SDS011;62201;49.966;8.342;2024-03-02T12:55:53;4.70;;;3.10;;
61640;SDS011;62201;49.966;8.342;2024-03-02T12:58:21;4.78;;;3.08;;
61640;SDS011;62201;49.966;8.342;2024-03-02T13:00:47;3.83;;;3.05;;
61640;SDS011;62201;49.966;8.342;2024-03-02T13:03:13;6.65;;;3.20;;
61640;SDS011;62201;49.966;8.342;2024-03-02T13:05:39;4.15;;;3.00;;
61640;SDS011;62201;49.966;8.342;2024-03-02T13:08:05;4.70;;;3.40;;
61640;SDS011;62201;49.966;8.342;2024-03-02T13:10:32;4.93;;;3.22;;
61640;SDS011;62201;49.966;8.342;2024-03-02T13:12:58;6.85;;;3.50;;
61640;SDS011;62201;49.966;8.342;2024-03-02T13:15:25;3.28;;;2.55;;
61640;SDS011;62201;49.966;8.342;2024-03-02T13:17:51;4.03;;;3.10;;
61640;SDS011;62201;49.966;8.342;2024-03-02T13:20:17;4.07;;;3.20;;
61640;SDS011;62201;49.966;8.342;2024-03-02T13:22:44;6.03;;;2.90;;
61640;SDS011;62201;49.966;8.342;2024-03-02T13:25:09;3.67;;;3.00;;
61640;SDS011;62201;49.966;8.342;2024-03-02T13:27:36;3.47;;;2.60;;
61640;SDS011;62201;49.966;8.342;2024-03-02T13:30:02;4.65;;;3.40;;
61640;SDS011;62201;49.966;8.342;2024-03-02T13:32:28;4.90;;;3.13;;
61640;SDS011;62201;49.966;8.342;2024-03-02T13:34:54;5.22;;;3.40;;
61640;SDS011;62201;49.966;8.342;2024-03-02T13:37:20;4.20;;;2.92;;
61640;SDS011;62201;49.966;8.342;2024-03-02T13:39:46;3.42;;;2.83;;
61640;SDS011;62201;49.966;8.342;2024-03-02T13:42:11;5.28;;;3.50;;
61640;SDS011;62201;49.966;8.342;2024-03-02T13:44:40;4.35;;;2.53;;
61640;SDS011;62201;49.966;8.342;2024-03-02T13:47:06;2.88;;;2.10;;
61640;SDS011;62201;49.966;8.342;2024-03-02T13:49:32;5.43;;;2.80;;
61640;SDS011;62201;49.966;8.342;2024-03-02T13:52:06;5.45;;;2.58;;
61640;SDS011;62201;49.966;8.342;2024-03-02T13:54:39;5.32;;;2.42;;
61640;SDS011;62201;49.966;8.342;2024-03-02T13:57:05;3.28;;;2.70;;
61640;SDS011;62201;49.966;8.342;2024-03-02T13:59:32;3.70;;;2.13;;
61640;SDS011;62201;49.966;8.342;2024-03-02T14:01:59;2.72;;;2.10;;
61640;SDS011;62201;49.966;8.342;2024-03-02T14:04:25;3.05;;;2.20;;
61640;SDS011;62201;49.966;8.342;2024-03-02T14:06:50;6.13;;;2.53;;
61640;SDS011;62201;49.966;8.342;2024-03-02T14:09:16;5.05;;;2.70;;
61640;SDS011;62201;49.966;8.342;2024-03-02T14:11:41;4.25;;;2.78;;
61640;SDS011;62201;49.966;8.342;2024-03-02T14:14:06;4.32;;;2.55;;
61640;SDS011;62201;49.966;8.342;2024-03-02T14:16:32;3.58;;;2.40;;
61640;SDS011;62201;49.966;8.342;2024-03-02T14:18:57;3.22;;;2.40;;
61640;SDS011;62201;49.966;8.342;2024-03-02T14:21:24;2.95;;;2.30;;
61640;SDS011;62201;49.966;8.342;2024-03-02T14:23:49;2.72;;;2.17;;
61640;SDS011;62201;49.966;8.342;2024-03-02T14:26:15;2.95;;;2.03;;
61640;SDS011;62201;49.966;8.342;2024-03-02T14:28:40;3.33;;;2.00;;
61640;SDS011;62201;49.966;8.342;2024-03-02T14:31:05;2.20;;;1.80;;
61640;SDS011;62201;49.966;8.342;2024-03-02T14:33:31;4.40;;;2.05;;
61640;SDS011;62201;49.966;8.342;2024-03-02T14:35:56;4.25;;;1.92;;
61640;SDS011;62201;49.966;8.342;2024-03-02T14:38:22;3.50;;;1.95;;